sensor_id;sensor_type;location;lat;lon;timestamp;P1;durP1;ratioP1;P2;durP2;ratioP2
30048;SDS011;16879;50.852;15.602;2022-10-31T00:01:02;19.02;;;13.05;;
30048;SDS011;16879;50.852;15.602;2022-10-31T00:03:40;16.02;;;11.73;;
30048;SDS011;16879;50.852;15.602;2022-10-31T00:06:06;22.33;;;11.70;;
30048;SDS011;16879;50.852;15.602;2022-10-31T00:08:32;21.52;;;13.23;;
30048;SDS011;16879;50.852;15.602;2022-10-31T00:10:58;22.42;;;12.38;;
30048;SDS011;16879;50.852;15.602;2022-10-31T00:13:24;21.40;;;13.85;;
30048;SDS011;16879;50.852;15.602;2022-10-31T00:15:50;20.27;;;12.85;;
30048;SDS011;16879;50.852;15.602;2022-10-31T00:18:16;24.25;;;13.93;;
30048;SDS011;16879;50.852;15.602;2022-10-31T00:20:42;23.25;;;14.15;;
30048;SDS011;16879;50.852;15.602;2022-10-31T00:23:08;18.42;;;13.10;;
30048;SDS011;16879;50.852;15.602;2022-10-31T00:25:36;23.92;;;13.45;;
30048;SDS011;16879;50.852;15.602;2022-10-31T00:28:04;20.52;;;13.23;;
30048;SDS011;16879;50.852;15.602;2022-10-31T00:30:31;22.52;;;13.63;;
30048;SDS011;16879;50.852;15.602;2022-10-31T00:32:57;18.27;;;11.57;;
30048;SDS011;16879;50.852;15.602;2022-10-31T00:35:24;24.00;;;12.77;;
30048;SDS011;16879;50.852;15.602;2022-10-31T00:37:50;22.73;;;13.13;;
30048;SDS011;16879;50.852;15.602;2022-10-31T00:40:17;32.30;;;18.48;;
30048;SDS011;16879;50.852;15.602;2022-10-31T00:42:43;39.78;;;23.48;;
30048;SDS011;16879;50.852;15.602;2022-10-31T00:45:09;31.70;;;20.95;;
30048;SDS011;16879;50.852;15.602;2022-10-31T00:47:35;29.40;;;20.05;;
30048;SDS011;16879;50.852;15.602;2022-10-31T00:50:01;38.75;;;25.52;;
30048;SDS011;16879;50.852;15.602;2022-10-31T00:52:28;27.42;;;17.88;;
30048;SDS011;16879;50.852;15.602;2022-10-31T00:54:54;31.77;;;20.38;;
30048;SDS011;16879;50.852;15.602;2022-10-31T00:57:20;31.58;;;21.50;;
30048;SDS011;16879;50.852;15.602;2022-10-31T00:59:45;41.03;;;25.75;;
30048;SDS011;16879;50.852;15.602;2022-10-31T01:02:11;34.75;;;21.65;;
30048;SDS011;16879;50.852;15.602;2022-10-31T01:04:37;30.08;;;21.80;;
30048;SDS011;16879;50.852;15.602;2022-10-31T01:07:03;35.97;;;23.38;;
30048;SDS011;16879;50.852;15.602;2022-10-31T01:09:29;28.38;;;18.65;;
30048;SDS011;16879;50.852;15.602;2022-10-31T01:11:54;33.67;;;21.67;;
30048;SDS011;16879;50.852;15.602;2022-10-31T01:14:20;31.45;;;22.65;;
30048;SDS011;16879;50.852;15.602;2022-10-31T01:16:46;28.20;;;20.20;;
30048;SDS011;16879;50.852;15.602;2022-10-31T01:19:12;36.30;;;23.25;;
30048;SDS011;16879;50.852;15.602;2022-10-31T01:21:38;31.30;;;19.23;;
30048;SDS011;16879;50.852;15.602;2022-10-31T01:24:03;31.02;;;20.83;;
30048;SDS011;16879;50.852;15.602;2022-10-31T01:26:31;35.97;;;26.02;;
30048;SDS011;16879;50.852;15.602;2022-10-31T01:28:59;36.55;;;25.25;;
30048;SDS011;16879;50.852;15.602;2022-10-31T01:31:27;32.38;;;22.13;;
30048;SDS011;16879;50.852;15.602;2022-10-31T01:33:55;32.55;;;23.02;;
30048;SDS011;16879;50.852;15.602;2022-10-31T01:36:23;31.10;;;19.60;;
30048;SDS011;16879;50.852;15.602;2022-10-31T01:41:24;27.42;;;17.77;;
30048;SDS011;16879;50.852;15.602;2022-10-31T01:43:56;25.35;;;18.10;;
30048;SDS011;16879;50.852;15.602;2022-10-31T01:46:25;23.75;;;16.42;;
30048;SDS011;16879;50.852;15.602;2022-10-31T01:49:03;27.48;;;17.25;;
30048;SDS011;16879;50.852;15.602;2022-10-31T01:51:35;25.20;;;16.63;;
30048;SDS011;16879;50.852;15.602;2022-10-31T01:54:07;28.63;;;16.38;;
30048;SDS011;16879;50.852;15.602;2022-10-31T01:56:36;21.95;;;16.50;;
30048;SDS011;16879;50.852;15.602;2022-10-31T01:59:06;21.63;;;15.38;;
30048;SDS011;16879;50.852;15.602;2022-10-31T02:01:36;27.17;;;19.10;;
30048;SDS011;16879;50.852;15.602;2022-10-31T02:04:03;26.05;;;16.20;;
30048;SDS011;16879;50.852;15.602;2022-10-31T02:06:33;25.35;;;16.85;;
30048;SDS011;16879;50.852;15.602;2022-10-31T02:09:08;25.85;;;18.92;;
30048;SDS011;16879;50.852;15.602;2022-10-31T02:11:34;23.23;;;16.13;;
30048;SDS011;16879;50.852;15.602;2022-10-31T02:14:02;30.05;;;15.75;;
30048;SDS011;16879;50.852;15.602;2022-10-31T02:16:28;25.30;;;14.57;;
30048;SDS011;16879;50.852;15.602;2022-10-31T02:18:54;26.40;;;15.98;;
30048;SDS011;16879;50.852;15.602;2022-10-31T02:21:37;25.15;;;15.88;;
30048;SDS011;16879;50.852;15.602;2022-10-31T02:29:17;25.13;;;15.65;;
30048;SDS011;16879;50.852;15.602;2022-10-31T02:34:25;18.65;;;13.88;;
30048;SDS011;16879;50.852;15.602;2022-10-31T02:37:11;19.67;;;12.48;;
30048;SDS011;16879;50.852;15.602;2022-10-31T02:39:47;22.15;;;15.35;;
30048;SDS011;16879;50.852;15.602;2022-10-31T02:42:26;18.60;;;13.95;;
30048;SDS011;16879;50.852;15.602;2022-10-31T02:44:58;22.67;;;15.55;;
30048;SDS011;16879;50.852;15.602;2022-10-31T02:47:33;23.08;;;14.57;;
30048;SDS011;16879;50.852;15.602;2022-10-31T02:50:03;20.27;;;14.07;;
30048;SDS011;16879;50.852;15.602;2022-10-31T02:52:35;21.13;;;13.65;;
30048;SDS011;16879;50.852;15.602;2022-10-31T02:57:54;23.40;;;14.45;;
30048;SDS011;16879;50.852;15.602;2022-10-31T03:00:25;18.13;;;14.52;;
30048;SDS011;16879;50.852;15.602;2022-10-31T03:06:02;19.52;;;13.07;;
30048;SDS011;16879;50.852;15.602;2022-10-31T03:11:22;17.92;;;12.48;;
30048;SDS011;16879;50.852;15.602;2022-10-31T03:19:06;22.75;;;13.30;;
30048;SDS011;16879;50.852;15.602;2022-10-31T03:21:36;20.00;;;12.38;;
30048;SDS011;16879;50.852;15.602;2022-10-31T03:24:11;20.02;;;11.82;;
30048;SDS011;16879;50.852;15.602;2022-10-31T03:26:39;15.20;;;9.82;;
30048;SDS011;16879;50.852;15.602;2022-10-31T03:29:11;19.55;;;11.18;;
30048;SDS011;16879;50.852;15.602;2022-10-31T03:31:51;22.75;;;12.15;;
30048;SDS011;16879;50.852;15.602;2022-10-31T03:34:26;15.60;;;11.27;;
30048;SDS011;16879;50.852;15.602;2022-10-31T03:36:55;18.27;;;10.60;;
30048;SDS011;16879;50.852;15.602;2022-10-31T03:39:24;22.58;;;13.63;;
30048;SDS011;16879;50.852;15.602;2022-10-31T03:42:05;20.00;;;12.20;;
30048;SDS011;16879;50.852;15.602;2022-10-31T03:44:33;17.15;;;10.35;;
30048;SDS011;16879;50.852;15.602;2022-10-31T03:47:01;15.15;;;9.75;;
30048;SDS011;16879;50.852;15.602;2022-10-31T03:49:28;13.35;;;10.55;;
30048;SDS011;16879;50.852;15.602;2022-10-31T03:54:46;20.90;;;13.75;;
30048;SDS011;16879;50.852;15.602;2022-10-31T03:57:29;17.77;;;10.90;;
30048;SDS011;16879;50.852;15.602;2022-10-31T04:00:06;17.40;;;12.75;;
30048;SDS011;16879;50.852;15.602;2022-10-31T04:02:36;19.40;;;10.77;;
30048;SDS011;16879;50.852;15.602;2022-10-31T04:05:06;15.48;;;10.73;;
30048;SDS011;16879;50.852;15.602;2022-10-31T04:07:37;19.00;;;11.30;;
30048;SDS011;16879;50.852;15.602;2022-10-31T04:10:09;15.93;;;10.68;;
30048;SDS011;16879;50.852;15.602;2022-10-31T04:12:37;19.60;;;11.40;;
30048;SDS011;16879;50.852;15.602;2022-10-31T04:15:04;14.35;;;9.48;;
30048;SDS011;16879;50.852;15.602;2022-10-31T04:17:34;16.50;;;8.93;;
30048;SDS011;16879;50.852;15.602;2022-10-31T04:20:04;15.98;;;8.70;;
30048;SDS011;16879;50.852;15.602;2022-10-31T04:22:30;17.90;;;8.38;;
30048;SDS011;16879;50.852;15.602;2022-10-31T04:24:56;13.35;;;9.45;;
30048;SDS011;16879;50.852;15.602;2022-10-31T04:27:21;14.68;;;9.85;;
30048;SDS011;16879;50.852;15.602;2022-10-31T04:29:48;18.92;;;10.70;;
30048;SDS011;16879;50.852;15.602;2022-10-31T04:32:14;16.63;;;8.20;;
30048;SDS011;16879;50.852;15.602;2022-10-31T04:34:39;12.70;;;8.95;;
30048;SDS011;16879;50.852;15.602;2022-10-31T04:37:05;16.60;;;9.00;;
30048;SDS011;16879;50.852;15.602;2022-10-31T04:39:31;19.92;;;10.10;;
30048;SDS011;16879;50.852;15.602;2022-10-31T04:41:57;14.73;;;8.43;;
30048;SDS011;16879;50.852;15.602;2022-10-31T04:44:22;18.02;;;8.68;;
30048;SDS011;16879;50.852;15.602;2022-10-31T04:46:48;19.27;;;9.13;;
30048;SDS011;16879;50.852;15.602;2022-10-31T04:49:14;20.35;;;10.70;;
30048;SDS011;16879;50.852;15.602;2022-10-31T04:51:40;18.65;;;8.82;;
30048;SDS011;16879;50.852;15.602;2022-10-31T04:54:06;19.48;;;10.52;;
30048;SDS011;16879;50.852;15.602;2022-10-31T04:56:32;12.48;;;8.70;;
30048;SDS011;16879;50.852;15.602;2022-10-31T04:58:57;15.35;;;8.93;;
30048;SDS011;16879;50.852;15.602;2022-10-31T05:01:23;18.85;;;10.10;;
30048;SDS011;16879;50.852;15.602;2022-10-31T05:03:49;15.65;;;9.70;;
30048;SDS011;16879;50.852;15.602;2022-10-31T05:06:16;14.57;;;9.63;;
30048;SDS011;16879;50.852;15.602;2022-10-31T05:08:42;16.40;;;9.43;;
30048;SDS011;16879;50.852;15.602;2022-10-31T05:11:08;12.35;;;9.38;;
30048;SDS011;16879;50.852;15.602;2022-10-31T05:13:34;14.85;;;8.88;;
30048;SDS011;16879;50.852;15.602;2022-10-31T05:15:59;13.93;;;9.82;;
30048;SDS011;16879;50.852;15.602;2022-10-31T05:18:25;14.63;;;8.95;;
30048;SDS011;16879;50.852;15.602;2022-10-31T05:20:51;14.00;;;9.38;;
30048;SDS011;16879;50.852;15.602;2022-10-31T05:23:17;13.10;;;9.15;;
30048;SDS011;16879;50.852;15.602;2022-10-31T05:25:43;16.85;;;12.07;;
30048;SDS011;16879;50.852;15.602;2022-10-31T05:28:08;16.60;;;8.95;;
30048;SDS011;16879;50.852;15.602;2022-10-31T05:30:34;15.95;;;9.95;;
30048;SDS011;16879;50.852;15.602;2022-10-31T05:33:00;11.60;;;8.55;;
30048;SDS011;16879;50.852;15.602;2022-10-31T05:35:30;12.85;;;8.63;;
30048;SDS011;16879;50.852;15.602;2022-10-31T05:37:57;13.27;;;9.18;;
30048;SDS011;16879;50.852;15.602;2022-10-31T05:40:24;14.23;;;9.00;;
30048;SDS011;16879;50.852;15.602;2022-10-31T05:42:51;13.15;;;9.05;;
30048;SDS011;16879;50.852;15.602;2022-10-31T05:45:18;14.82;;;10.00;;
30048;SDS011;16879;50.852;15.602;2022-10-31T05:47:55;18.48;;;11.68;;
30048;SDS011;16879;50.852;15.602;2022-10-31T05:50:22;17.75;;;9.82;;
30048;SDS011;16879;50.852;15.602;2022-10-31T05:52:58;13.50;;;8.15;;
30048;SDS011;16879;50.852;15.602;2022-10-31T05:55:26;12.20;;;9.70;;
30048;SDS011;16879;50.852;15.602;2022-10-31T05:57:53;14.05;;;9.73;;
30048;SDS011;16879;50.852;15.602;2022-10-31T06:00:19;15.85;;;10.70;;
30048;SDS011;16879;50.852;15.602;2022-10-31T06:02:45;14.82;;;11.77;;
30048;SDS011;16879;50.852;15.602;2022-10-31T06:05:11;14.13;;;10.55;;
30048;SDS011;16879;50.852;15.602;2022-10-31T06:07:38;17.15;;;10.52;;
30048;SDS011;16879;50.852;15.602;2022-10-31T06:10:05;19.15;;;11.25;;
30048;SDS011;16879;50.852;15.602;2022-10-31T06:12:33;14.80;;;9.15;;
30048;SDS011;16879;50.852;15.602;2022-10-31T06:15:03;12.93;;;9.88;;
30048;SDS011;16879;50.852;15.602;2022-10-31T06:17:30;16.80;;;10.07;;
30048;SDS011;16879;50.852;15.602;2022-10-31T06:19:56;15.45;;;10.32;;
30048;SDS011;16879;50.852;15.602;2022-10-31T06:22:23;12.77;;;9.02;;
30048;SDS011;16879;50.852;15.602;2022-10-31T06:24:49;12.75;;;8.68;;
30048;SDS011;16879;50.852;15.602;2022-10-31T06:27:14;15.93;;;10.93;;
30048;SDS011;16879;50.852;15.602;2022-10-31T06:29:40;17.35;;;9.43;;
30048;SDS011;16879;50.852;15.602;2022-10-31T06:32:08;17.02;;;10.93;;
30048;SDS011;16879;50.852;15.602;2022-10-31T06:34:35;11.93;;;8.63;;
30048;SDS011;16879;50.852;15.602;2022-10-31T06:37:01;12.98;;;9.82;;
30048;SDS011;16879;50.852;15.602;2022-10-31T06:39:27;13.18;;;10.32;;
30048;SDS011;16879;50.852;15.602;2022-10-31T06:41:53;10.05;;;8.25;;
30048;SDS011;16879;50.852;15.602;2022-10-31T06:44:19;14.30;;;10.27;;
30048;SDS011;16879;50.852;15.602;2022-10-31T06:46:46;19.77;;;11.50;;
30048;SDS011;16879;50.852;15.602;2022-10-31T06:49:12;11.80;;;8.32;;
30048;SDS011;16879;50.852;15.602;2022-10-31T06:51:38;14.68;;;10.57;;
30048;SDS011;16879;50.852;15.602;2022-10-31T06:54:05;16.38;;;12.13;;
30048;SDS011;16879;50.852;15.602;2022-10-31T06:56:31;13.38;;;11.90;;
30048;SDS011;16879;50.852;15.602;2022-10-31T06:58:57;18.23;;;12.07;;
30048;SDS011;16879;50.852;15.602;2022-10-31T07:01:23;19.10;;;14.45;;
30048;SDS011;16879;50.852;15.602;2022-10-31T07:03:49;17.17;;;12.02;;
30048;SDS011;16879;50.852;15.602;2022-10-31T07:06:15;16.58;;;13.38;;
30048;SDS011;16879;50.852;15.602;2022-10-31T07:08:41;14.45;;;11.68;;
30048;SDS011;16879;50.852;15.602;2022-10-31T07:11:07;20.20;;;15.05;;
30048;SDS011;16879;50.852;15.602;2022-10-31T07:13:34;20.30;;;13.82;;
30048;SDS011;16879;50.852;15.602;2022-10-31T07:16:01;23.50;;;15.55;;
30048;SDS011;16879;50.852;15.602;2022-10-31T07:18:28;22.77;;;14.85;;
30048;SDS011;16879;50.852;15.602;2022-10-31T07:20:54;22.08;;;14.60;;
30048;SDS011;16879;50.852;15.602;2022-10-31T07:23:20;24.52;;;17.58;;
30048;SDS011;16879;50.852;15.602;2022-10-31T07:25:46;24.38;;;18.65;;
30048;SDS011;16879;50.852;15.602;2022-10-31T07:28:12;27.73;;;19.77;;
30048;SDS011;16879;50.852;15.602;2022-10-31T07:30:38;23.77;;;16.95;;
30048;SDS011;16879;50.852;15.602;2022-10-31T07:33:04;18.48;;;14.02;;
30048;SDS011;16879;50.852;15.602;2022-10-31T07:35:31;20.45;;;15.40;;
30048;SDS011;16879;50.852;15.602;2022-10-31T07:37:57;21.63;;;14.82;;
30048;SDS011;16879;50.852;15.602;2022-10-31T07:42:57;22.08;;;16.35;;
30048;SDS011;16879;50.852;15.602;2022-10-31T07:45:23;20.67;;;14.32;;
30048;SDS011;16879;50.852;15.602;2022-10-31T07:47:49;23.88;;;14.80;;
30048;SDS011;16879;50.852;15.602;2022-10-31T07:50:18;23.83;;;15.32;;
30048;SDS011;16879;50.852;15.602;2022-10-31T07:53:08;19.10;;;12.65;;
30048;SDS011;16879;50.852;15.602;2022-10-31T07:55:35;27.63;;;17.67;;
30048;SDS011;16879;50.852;15.602;2022-10-31T08:00:35;20.30;;;15.20;;
30048;SDS011;16879;50.852;15.602;2022-10-31T08:03:03;17.00;;;12.68;;
30048;SDS011;16879;50.852;15.602;2022-10-31T08:05:30;21.42;;;14.20;;
30048;SDS011;16879;50.852;15.602;2022-10-31T08:07:57;20.17;;;15.13;;
30048;SDS011;16879;50.852;15.602;2022-10-31T08:10:23;19.63;;;12.85;;
30048;SDS011;16879;50.852;15.602;2022-10-31T08:12:57;22.60;;;13.32;;
30048;SDS011;16879;50.852;15.602;2022-10-31T08:15:27;15.23;;;11.98;;
30048;SDS011;16879;50.852;15.602;2022-10-31T08:17:53;21.05;;;12.25;;
30048;SDS011;16879;50.852;15.602;2022-10-31T08:20:20;15.15;;;10.95;;
30048;SDS011;16879;50.852;15.602;2022-10-31T08:22:59;19.38;;;13.00;;
30048;SDS011;16879;50.852;15.602;2022-10-31T08:25:27;19.33;;;12.82;;
30048;SDS011;16879;50.852;15.602;2022-10-31T08:27:55;21.50;;;14.70;;
30048;SDS011;16879;50.852;15.602;2022-10-31T08:30:22;23.33;;;14.50;;
30048;SDS011;16879;50.852;15.602;2022-10-31T08:32:57;20.38;;;14.82;;
30048;SDS011;16879;50.852;15.602;2022-10-31T08:35:27;21.27;;;13.52;;
30048;SDS011;16879;50.852;15.602;2022-10-31T08:37:53;17.48;;;11.18;;
30048;SDS011;16879;50.852;15.602;2022-10-31T08:40:20;13.43;;;9.85;;
30048;SDS011;16879;50.852;15.602;2022-10-31T08:42:46;16.00;;;10.90;;
30048;SDS011;16879;50.852;15.602;2022-10-31T08:45:12;16.90;;;10.27;;
30048;SDS011;16879;50.852;15.602;2022-10-31T08:47:38;19.23;;;12.07;;
30048;SDS011;16879;50.852;15.602;2022-10-31T08:50:04;21.67;;;11.98;;
30048;SDS011;16879;50.852;15.602;2022-10-31T08:52:31;21.52;;;11.02;;
30048;SDS011;16879;50.852;15.602;2022-10-31T08:54:57;13.82;;;9.38;;
30048;SDS011;16879;50.852;15.602;2022-10-31T08:57:22;20.35;;;12.23;;
30048;SDS011;16879;50.852;15.602;2022-10-31T08:59:48;13.90;;;9.10;;
30048;SDS011;16879;50.852;15.602;2022-10-31T09:02:14;14.23;;;8.93;;
30048;SDS011;16879;50.852;15.602;2022-10-31T09:04:40;13.02;;;8.98;;
30048;SDS011;16879;50.852;15.602;2022-10-31T09:07:06;12.77;;;9.30;;
30048;SDS011;16879;50.852;15.602;2022-10-31T09:09:32;15.50;;;9.15;;
30048;SDS011;16879;50.852;15.602;2022-10-31T09:11:57;13.93;;;8.65;;
30048;SDS011;16879;50.852;15.602;2022-10-31T09:14:23;12.65;;;8.57;;
30048;SDS011;16879;50.852;15.602;2022-10-31T09:16:50;18.52;;;9.98;;
30048;SDS011;16879;50.852;15.602;2022-10-31T09:19:16;15.98;;;10.00;;
30048;SDS011;16879;50.852;15.602;2022-10-31T09:21:42;18.83;;;10.35;;
30048;SDS011;16879;50.852;15.602;2022-10-31T09:24:08;14.65;;;10.07;;
30048;SDS011;16879;50.852;15.602;2022-10-31T09:26:33;16.02;;;10.05;;
30048;SDS011;16879;50.852;15.602;2022-10-31T09:28:59;17.92;;;9.55;;
30048;SDS011;16879;50.852;15.602;2022-10-31T09:31:27;14.95;;;9.38;;
30048;SDS011;16879;50.852;15.602;2022-10-31T09:33:53;17.27;;;9.43;;
30048;SDS011;16879;50.852;15.602;2022-10-31T09:36:19;11.38;;;8.27;;
30048;SDS011;16879;50.852;15.602;2022-10-31T09:38:45;13.15;;;7.82;;
30048;SDS011;16879;50.852;15.602;2022-10-31T09:43:58;10.15;;;7.03;;
30048;SDS011;16879;50.852;15.602;2022-10-31T09:47:02;10.98;;;7.00;;
30048;SDS011;16879;50.852;15.602;2022-10-31T09:49:49;11.15;;;6.22;;
30048;SDS011;16879;50.852;15.602;2022-10-31T09:52:38;12.55;;;5.97;;
30048;SDS011;16879;50.852;15.602;2022-10-31T09:55:19;9.52;;;5.90;;
30048;SDS011;16879;50.852;15.602;2022-10-31T10:00:20;14.90;;;6.45;;
30048;SDS011;16879;50.852;15.602;2022-10-31T10:02:49;13.38;;;8.48;;
30048;SDS011;16879;50.852;15.602;2022-10-31T10:10:37;10.80;;;6.03;;
30048;SDS011;16879;50.852;15.602;2022-10-31T10:13:21;10.32;;;6.90;;
30048;SDS011;16879;50.852;15.602;2022-10-31T10:32:36;13.25;;;6.50;;
30048;SDS011;16879;50.852;15.602;2022-10-31T10:38:03;9.00;;;5.17;;
30048;SDS011;16879;50.852;15.602;2022-10-31T10:40:38;8.43;;;4.95;;
30048;SDS011;16879;50.852;15.602;2022-10-31T10:48:55;9.07;;;4.78;;
30048;SDS011;16879;50.852;15.602;2022-10-31T10:59:54;6.65;;;3.63;;
30048;SDS011;16879;50.852;15.602;2022-10-31T11:02:24;10.38;;;4.03;;
30048;SDS011;16879;50.852;15.602;2022-10-31T11:04:53;10.82;;;4.55;;
30048;SDS011;16879;50.852;15.602;2022-10-31T11:07:21;7.57;;;3.78;;
30048;SDS011;16879;50.852;15.602;2022-10-31T11:09:47;9.60;;;4.47;;
30048;SDS011;16879;50.852;15.602;2022-10-31T11:12:28;9.80;;;4.18;;
30048;SDS011;16879;50.852;15.602;2022-10-31T11:14:57;9.30;;;3.35;;
30048;SDS011;16879;50.852;15.602;2022-10-31T11:22:48;8.85;;;4.53;;
30048;SDS011;16879;50.852;15.602;2022-10-31T11:25:21;10.32;;;4.95;;
30048;SDS011;16879;50.852;15.602;2022-10-31T11:30:27;12.10;;;4.35;;
30048;SDS011;16879;50.852;15.602;2022-10-31T11:33:33;8.50;;;4.07;;
30048;SDS011;16879;50.852;15.602;2022-10-31T11:36:04;7.30;;;3.78;;
30048;SDS011;16879;50.852;15.602;2022-10-31T11:38:43;8.15;;;3.95;;
30048;SDS011;16879;50.852;15.602;2022-10-31T11:41:13;6.53;;;4.00;;
30048;SDS011;16879;50.852;15.602;2022-10-31T11:46:27;8.30;;;3.40;;
30048;SDS011;16879;50.852;15.602;2022-10-31T11:49:02;5.97;;;3.58;;
30048;SDS011;16879;50.852;15.602;2022-10-31T11:51:33;11.15;;;4.78;;
30048;SDS011;16879;50.852;15.602;2022-10-31T11:54:00;11.50;;;4.55;;
30048;SDS011;16879;50.852;15.602;2022-10-31T11:56:38;5.45;;;3.70;;
30048;SDS011;16879;50.852;15.602;2022-10-31T11:59:12;11.88;;;4.75;;
30048;SDS011;16879;50.852;15.602;2022-10-31T12:02:00;7.55;;;3.88;;
30048;SDS011;16879;50.852;15.602;2022-10-31T12:04:44;7.95;;;3.83;;
30048;SDS011;16879;50.852;15.602;2022-10-31T12:07:17;4.70;;;3.72;;
30048;SDS011;16879;50.852;15.602;2022-10-31T12:09:43;6.00;;;3.35;;
30048;SDS011;16879;50.852;15.602;2022-10-31T12:15:05;6.00;;;4.00;;
30048;SDS011;16879;50.852;15.602;2022-10-31T12:17:44;5.47;;;2.92;;
30048;SDS011;16879;50.852;15.602;2022-10-31T12:25:50;8.15;;;4.28;;
30048;SDS011;16879;50.852;15.602;2022-10-31T12:36:51;9.82;;;3.45;;
30048;SDS011;16879;50.852;15.602;2022-10-31T12:42:32;7.32;;;4.45;;
30048;SDS011;16879;50.852;15.602;2022-10-31T12:59:33;5.78;;;3.28;;
30048;SDS011;16879;50.852;15.602;2022-10-31T13:10:46;4.07;;;3.15;;
30048;SDS011;16879;50.852;15.602;2022-10-31T13:12:53;6.72;;;2.53;;
30048;SDS011;16879;50.852;15.602;2022-10-31T13:15:33;4.28;;;2.78;;
30048;SDS011;16879;50.852;15.602;2022-10-31T13:18:12;5.35;;;2.97;;
30048;SDS011;16879;50.852;15.602;2022-10-31T13:20:46;4.07;;;2.67;;
30048;SDS011;16879;50.852;15.602;2022-10-31T13:23:35;4.57;;;3.15;;
30048;SDS011;16879;50.852;15.602;2022-10-31T13:26:09;6.28;;;2.55;;
30048;SDS011;16879;50.852;15.602;2022-10-31T13:29:02;6.88;;;2.80;;
30048;SDS011;16879;50.852;15.602;2022-10-31T13:31:45;12.80;;;3.20;;
30048;SDS011;16879;50.852;15.602;2022-10-31T13:45:24;8.85;;;3.38;;
30048;SDS011;16879;50.852;15.602;2022-10-31T13:50:30;9.25;;;3.08;;
30048;SDS011;16879;50.852;15.602;2022-10-31T13:53:13;5.68;;;3.13;;
30048;SDS011;16879;50.852;15.602;2022-10-31T13:55:44;6.15;;;2.83;;
30048;SDS011;16879;50.852;15.602;2022-10-31T13:58:27;6.20;;;3.38;;
30048;SDS011;16879;50.852;15.602;2022-10-31T14:00:58;5.73;;;2.70;;
30048;SDS011;16879;50.852;15.602;2022-10-31T14:03:25;5.88;;;3.15;;
30048;SDS011;16879;50.852;15.602;2022-10-31T14:05:54;6.47;;;2.90;;
30048;SDS011;16879;50.852;15.602;2022-10-31T14:08:21;5.78;;;2.75;;
30048;SDS011;16879;50.852;15.602;2022-10-31T14:10:53;7.18;;;3.47;;
30048;SDS011;16879;50.852;15.602;2022-10-31T14:13:30;7.78;;;2.97;;
30048;SDS011;16879;50.852;15.602;2022-10-31T14:15:58;6.60;;;3.15;;
30048;SDS011;16879;50.852;15.602;2022-10-31T14:18:59;15.07;;;7.28;;
30048;SDS011;16879;50.852;15.602;2022-10-31T14:21:31;10.25;;;6.60;;
30048;SDS011;16879;50.852;15.602;2022-10-31T14:24:12;21.30;;;6.28;;
30048;SDS011;16879;50.852;15.602;2022-10-31T14:26:58;8.95;;;5.35;;
30048;SDS011;16879;50.852;15.602;2022-10-31T14:29:32;9.45;;;5.60;;
30048;SDS011;16879;50.852;15.602;2022-10-31T14:32:01;7.72;;;4.43;;
30048;SDS011;16879;50.852;15.602;2022-10-31T14:37:19;8.88;;;4.78;;
30048;SDS011;16879;50.852;15.602;2022-10-31T14:53:20;6.38;;;3.95;;
30048;SDS011;16879;50.852;15.602;2022-10-31T14:55:48;7.35;;;4.18;;
30048;SDS011;16879;50.852;15.602;2022-10-31T14:58:20;9.00;;;4.28;;
30048;SDS011;16879;50.852;15.602;2022-10-31T15:01:04;7.25;;;5.05;;
30048;SDS011;16879;50.852;15.602;2022-10-31T15:03:38;9.63;;;5.70;;
30048;SDS011;16879;50.852;15.602;2022-10-31T15:06:11;12.18;;;6.95;;
30048;SDS011;16879;50.852;15.602;2022-10-31T15:11:09;22.63;;;11.07;;
30048;SDS011;16879;50.852;15.602;2022-10-31T15:13:41;21.13;;;13.27;;
30048;SDS011;16879;50.852;15.602;2022-10-31T15:16:08;21.42;;;13.93;;
30048;SDS011;16879;50.852;15.602;2022-10-31T15:18:36;18.98;;;11.60;;
30048;SDS011;16879;50.852;15.602;2022-10-31T15:21:11;17.23;;;10.68;;
30048;SDS011;16879;50.852;15.602;2022-10-31T15:23:41;13.98;;;9.82;;
30048;SDS011;16879;50.852;15.602;2022-10-31T15:26:14;14.98;;;10.02;;
30048;SDS011;16879;50.852;15.602;2022-10-31T15:28:46;15.75;;;8.95;;
30048;SDS011;16879;50.852;15.602;2022-10-31T15:31:23;12.48;;;9.07;;
30048;SDS011;16879;50.852;15.602;2022-10-31T15:33:48;17.67;;;9.82;;
30048;SDS011;16879;50.852;15.602;2022-10-31T15:36:20;16.00;;;10.38;;
30048;SDS011;16879;50.852;15.602;2022-10-31T15:38:48;21.38;;;11.13;;
30048;SDS011;16879;50.852;15.602;2022-10-31T15:43:53;22.50;;;10.82;;
30048;SDS011;16879;50.852;15.602;2022-10-31T15:46:20;15.30;;;10.07;;
30048;SDS011;16879;50.852;15.602;2022-10-31T15:48:46;19.00;;;11.07;;
30048;SDS011;16879;50.852;15.602;2022-10-31T15:51:13;21.77;;;10.07;;
30048;SDS011;16879;50.852;15.602;2022-10-31T15:53:48;13.95;;;10.98;;
30048;SDS011;16879;50.852;15.602;2022-10-31T15:56:21;21.13;;;10.63;;
30048;SDS011;16879;50.852;15.602;2022-10-31T15:58:50;17.55;;;11.63;;
30048;SDS011;16879;50.852;15.602;2022-10-31T16:01:22;15.40;;;10.35;;
30048;SDS011;16879;50.852;15.602;2022-10-31T16:04:03;21.67;;;12.10;;
30048;SDS011;16879;50.852;15.602;2022-10-31T16:06:34;17.25;;;10.45;;
30048;SDS011;16879;50.852;15.602;2022-10-31T16:09:03;18.33;;;11.88;;
30048;SDS011;16879;50.852;15.602;2022-10-31T16:11:44;21.17;;;12.10;;
30048;SDS011;16879;50.852;15.602;2022-10-31T16:16:45;36.08;;;19.45;;
30048;SDS011;16879;50.852;15.602;2022-10-31T16:19:19;27.70;;;16.48;;
30048;SDS011;16879;50.852;15.602;2022-10-31T16:21:46;58.83;;;31.17;;
30048;SDS011;16879;50.852;15.602;2022-10-31T16:24:16;72.78;;;42.67;;
30048;SDS011;16879;50.852;15.602;2022-10-31T16:26:47;60.97;;;35.13;;
30048;SDS011;16879;50.852;15.602;2022-10-31T16:32:04;27.85;;;16.65;;
30048;SDS011;16879;50.852;15.602;2022-10-31T16:34:30;21.02;;;12.65;;
30048;SDS011;16879;50.852;15.602;2022-10-31T16:36:56;21.30;;;11.32;;
30048;SDS011;16879;50.852;15.602;2022-10-31T16:39:22;19.67;;;11.70;;
30048;SDS011;16879;50.852;15.602;2022-10-31T16:41:48;22.48;;;12.02;;
30048;SDS011;16879;50.852;15.602;2022-10-31T16:44:23;21.83;;;12.70;;
30048;SDS011;16879;50.852;15.602;2022-10-31T16:47:12;17.33;;;11.48;;
30048;SDS011;16879;50.852;15.602;2022-10-31T16:49:41;24.52;;;11.88;;
30048;SDS011;16879;50.852;15.602;2022-10-31T16:52:08;20.73;;;10.50;;
30048;SDS011;16879;50.852;15.602;2022-10-31T16:54:34;20.33;;;10.85;;
30048;SDS011;16879;50.852;15.602;2022-10-31T16:57:00;18.20;;;10.90;;
30048;SDS011;16879;50.852;15.602;2022-10-31T16:59:28;20.77;;;10.45;;
30048;SDS011;16879;50.852;15.602;2022-10-31T17:01:56;20.10;;;11.70;;
30048;SDS011;16879;50.852;15.602;2022-10-31T17:04:22;22.23;;;11.85;;
30048;SDS011;16879;50.852;15.602;2022-10-31T17:06:48;25.23;;;12.13;;
30048;SDS011;16879;50.852;15.602;2022-10-31T17:09:15;21.33;;;11.90;;
30048;SDS011;16879;50.852;15.602;2022-10-31T17:11:43;23.08;;;13.15;;
30048;SDS011;16879;50.852;15.602;2022-10-31T17:14:12;18.33;;;12.27;;
30048;SDS011;16879;50.852;15.602;2022-10-31T17:16:38;23.55;;;11.70;;
30048;SDS011;16879;50.852;15.602;2022-10-31T17:19:04;16.52;;;11.57;;
30048;SDS011;16879;50.852;15.602;2022-10-31T17:21:30;24.92;;;15.48;;